sensor_id;sensor_type;location;lat;lon;timestamp;temperature;humidity
8172;DHT22;4127;47.908;10.850;2023-06-26T00:01:40;13.90;99.90
8172;DHT22;4127;47.908;10.850;2023-06-26T00:04:07;14.00;99.90
8172;DHT22;4127;47.908;10.850;2023-06-26T00:06:34;14.00;99.90
8172;DHT22;4127;47.908;10.850;2023-06-26T00:09:01;14.00;99.90
8172;DHT22;4127;47.908;10.850;2023-06-26T00:11:27;14.00;99.90
8172;DHT22;4127;47.908;10.850;2023-06-26T00:13:57;14.00;99.90
8172;DHT22;4127;47.908;10.850;2023-06-26T00:16:24;14.00;99.90
8172;DHT22;4127;47.908;10.850;2023-06-26T00:18:51;13.90;99.90
8172;DHT22;4127;47.908;10.850;2023-06-26T00:21:18;13.90;99.90
8172;DHT22;4127;47.908;10.850;2023-06-26T00:23:45;13.90;99.90
8172;DHT22;4127;47.908;10.850;2023-06-26T00:26:12;14.00;99.90
8172;DHT22;4127;47.908;10.850;2023-06-26T00:28:39;13.90;99.90
8172;DHT22;4127;47.908;10.850;2023-06-26T00:31:06;13.90;99.90
8172;DHT22;4127;47.908;10.850;2023-06-26T00:33:33;13.90;99.90
8172;DHT22;4127;47.908;10.850;2023-06-26T00:35:59;13.80;99.90
8172;DHT22;4127;47.908;10.850;2023-06-26T00:38:26;13.80;99.90
8172;DHT22;4127;47.908;10.850;2023-06-26T00:40:53;13.70;99.90
8172;DHT22;4127;47.908;10.850;2023-06-26T00:43:22;13.60;99.90
8172;DHT22;4127;47.908;10.850;2023-06-26T00:45:49;13.60;99.90
8172;DHT22;4127;47.908;10.850;2023-06-26T00:48:16;13.70;99.90
8172;DHT22;4127;47.908;10.850;2023-06-26T00:50:43;13.70;99.90
8172;DHT22;4127;47.908;10.850;2023-06-26T00:53:11;13.70;99.90
8172;DHT22;4127;47.908;10.850;2023-06-26T00:55:38;13.60;99.90
8172;DHT22;4127;47.908;10.850;2023-06-26T00:58:05;13.60;99.90
8172;DHT22;4127;47.908;10.850;2023-06-26T01:00:32;13.60;99.90
8172;DHT22;4127;47.908;10.850;2023-06-26T01:02:58;13.50;99.90
8172;DHT22;4127;47.908;10.850;2023-06-26T01:05:27;13.50;99.90
8172;DHT22;4127;47.908;10.850;2023-06-26T01:07:57;13.50;99.90
8172;DHT22;4127;47.908;10.850;2023-06-26T01:10:24;13.50;99.90
8172;DHT22;4127;47.908;10.850;2023-06-26T01:12:54;13.60;99.90
8172;DHT22;4127;47.908;10.850;2023-06-26T01:15:20;13.60;99.90
8172;DHT22;4127;47.908;10.850;2023-06-26T01:17:47;13.60;99.90
8172;DHT22;4127;47.908;10.850;2023-06-26T01:20:15;13.60;99.90
8172;DHT22;4127;47.908;10.850;2023-06-26T01:28:10;13.50;99.90
8172;DHT22;4127;47.908;10.850;2023-06-26T01:30:42;13.40;99.90
8172;DHT22;4127;47.908;10.850;2023-06-26T01:33:10;13.40;99.90
8172;DHT22;4127;47.908;10.850;2023-06-26T01:35:38;13.40;99.90
8172;DHT22;4127;47.908;10.850;2023-06-26T01:40:39;13.20;99.90
8172;DHT22;4127;47.908;10.850;2023-06-26T01:43:27;13.20;99.90
8172;DHT22;4127;47.908;10.850;2023-06-26T01:46:03;13.20;99.90
8172;DHT22;4127;47.908;10.850;2023-06-26T01:48:38;13.10;99.90
8172;DHT22;4127;47.908;10.850;2023-06-26T01:51:07;13.10;99.90
8172;DHT22;4127;47.908;10.850;2023-06-26T01:53:38;13.10;99.90
8172;DHT22;4127;47.908;10.850;2023-06-26T01:56:16;13.00;99.90
8172;DHT22;4127;47.908;10.850;2023-06-26T01:58:46;13.00;99.90
8172;DHT22;4127;47.908;10.850;2023-06-26T02:01:14;12.90;99.90
8172;DHT22;4127;47.908;10.850;2023-06-26T02:03:41;12.90;99.90
8172;DHT22;4127;47.908;10.850;2023-06-26T02:06:08;12.90;99.90
8172;DHT22;4127;47.908;10.850;2023-06-26T02:08:36;12.90;99.90
8172;DHT22;4127;47.908;10.850;2023-06-26T02:11:02;12.90;99.90
8172;DHT22;4127;47.908;10.850;2023-06-26T02:13:30;12.90;99.90
8172;DHT22;4127;47.908;10.850;2023-06-26T02:15:56;12.90;99.90
8172;DHT22;4127;47.908;10.850;2023-06-26T02:18:24;12.80;99.90
8172;DHT22;4127;47.908;10.850;2023-06-26T02:20:51;12.80;99.90
8172;DHT22;4127;47.908;10.850;2023-06-26T02:23:17;12.80;99.90
8172;DHT22;4127;47.908;10.850;2023-06-26T02:25:44;12.80;99.90
8172;DHT22;4127;47.908;10.850;2023-06-26T02:28:11;12.80;99.90
8172;DHT22;4127;47.908;10.850;2023-06-26T02:30:38;12.70;99.90
8172;DHT22;4127;47.908;10.850;2023-06-26T02:33:06;12.70;99.90
8172;DHT22;4127;47.908;10.850;2023-06-26T02:35:33;12.70;99.90
8172;DHT22;4127;47.908;10.850;2023-06-26T02:37:59;12.60;99.90
8172;DHT22;4127;47.908;10.850;2023-06-26T02:40:26;12.60;99.90
8172;DHT22;4127;47.908;10.850;2023-06-26T02:42:53;12.50;99.90
8172;DHT22;4127;47.908;10.850;2023-06-26T02:45:20;12.50;99.90
8172;DHT22;4127;47.908;10.850;2023-06-26T02:47:47;12.60;99.90
8172;DHT22;4127;47.908;10.850;2023-06-26T02:50:14;12.50;99.90
8172;DHT22;4127;47.908;10.850;2023-06-26T02:52:41;12.50;99.90
8172;DHT22;4127;47.908;10.850;2023-06-26T02:55:08;12.50;99.90
8172;DHT22;4127;47.908;10.850;2023-06-26T02:57:35;12.50;99.90
8172;DHT22;4127;47.908;10.850;2023-06-26T03:00:02;12.50;99.90
8172;DHT22;4127;47.908;10.850;2023-06-26T03:02:29;12.50;99.90
8172;DHT22;4127;47.908;10.850;2023-06-26T03:04:56;12.50;99.90
8172;DHT22;4127;47.908;10.850;2023-06-26T03:07:24;12.50;99.90
8172;DHT22;4127;47.908;10.850;2023-06-26T03:09:51;12.50;99.90
8172;DHT22;4127;47.908;10.850;2023-06-26T03:12:18;12.40;99.90
8172;DHT22;4127;47.908;10.850;2023-06-26T03:14:45;12.50;99.90
8172;DHT22;4127;47.908;10.850;2023-06-26T03:17:13;12.50;99.90
8172;DHT22;4127;47.908;10.850;2023-06-26T03:19:40;12.50;99.90
8172;DHT22;4127;47.908;10.850;2023-06-26T03:22:07;12.50;99.90
8172;DHT22;4127;47.908;10.850;2023-06-26T03:24:34;12.60;99.90
8172;DHT22;4127;47.908;10.850;2023-06-26T03:27:00;12.70;99.90
8172;DHT22;4127;47.908;10.850;2023-06-26T03:29:27;12.70;99.90
8172;DHT22;4127;47.908;10.850;2023-06-26T03:31:56;12.80;99.90
8172;DHT22;4127;47.908;10.850;2023-06-26T03:34:23;12.90;99.90
8172;DHT22;4127;47.908;10.850;2023-06-26T03:36:50;13.10;99.90
8172;DHT22;4127;47.908;10.850;2023-06-26T03:39:17;13.20;99.90
8172;DHT22;4127;47.908;10.850;2023-06-26T03:41:44;13.30;99.90
8172;DHT22;4127;47.908;10.850;2023-06-26T03:44:11;13.30;99.90
8172;DHT22;4127;47.908;10.850;2023-06-26T03:46:38;13.30;99.90
8172;DHT22;4127;47.908;10.850;2023-06-26T03:49:05;13.30;99.90
8172;DHT22;4127;47.908;10.850;2023-06-26T03:51:35;13.40;99.90
8172;DHT22;4127;47.908;10.850;2023-06-26T03:54:02;13.50;99.90
8172;DHT22;4127;47.908;10.850;2023-06-26T03:56:29;13.50;99.90
8172;DHT22;4127;47.908;10.850;2023-06-26T03:58:56;13.50;99.90
8172;DHT22;4127;47.908;10.850;2023-06-26T04:01:22;13.50;99.90
8172;DHT22;4127;47.908;10.850;2023-06-26T04:03:50;13.60;99.90
8172;DHT22;4127;47.908;10.850;2023-06-26T04:06:16;13.70;99.90
8172;DHT22;4127;47.908;10.850;2023-06-26T04:08:43;13.70;99.90
8172;DHT22;4127;47.908;10.850;2023-06-26T04:11:10;13.90;99.90
8172;DHT22;4127;47.908;10.850;2023-06-26T04:13:37;14.00;99.90
8172;DHT22;4127;47.908;10.850;2023-06-26T04:16:04;14.10;99.90
8172;DHT22;4127;47.908;10.850;2023-06-26T04:18:31;14.30;99.90
8172;DHT22;4127;47.908;10.850;2023-06-26T04:21:16;14.40;99.90
8172;DHT22;4127;47.908;10.850;2023-06-26T04:23:43;14.60;99.90
8172;DHT22;4127;47.908;10.850;2023-06-26T04:26:10;14.50;99.90
8172;DHT22;4127;47.908;10.850;2023-06-26T04:28:41;14.50;99.90
8172;DHT22;4127;47.908;10.850;2023-06-26T04:31:09;14.60;99.90
8172;DHT22;4127;47.908;10.850;2023-06-26T04:33:36;14.80;99.90
8172;DHT22;4127;47.908;10.850;2023-06-26T04:36:07;15.10;99.90
8172;DHT22;4127;47.908;10.850;2023-06-26T04:38:34;15.50;99.90
8172;DHT22;4127;47.908;10.850;2023-06-26T04:41:01;16.00;99.90
8172;DHT22;4127;47.908;10.850;2023-06-26T04:43:28;16.40;99.90
8172;DHT22;4127;47.908;10.850;2023-06-26T04:45:55;16.80;99.90
8172;DHT22;4127;47.908;10.850;2023-06-26T04:48:22;17.10;99.90
8172;DHT22;4127;47.908;10.850;2023-06-26T04:50:49;17.50;99.90
8172;DHT22;4127;47.908;10.850;2023-06-26T04:53:21;17.90;99.90
8172;DHT22;4127;47.908;10.850;2023-06-26T04:55:52;18.20;99.90
8172;DHT22;4127;47.908;10.850;2023-06-26T04:58:19;18.50;99.90
8172;DHT22;4127;47.908;10.850;2023-06-26T05:00:46;18.90;99.90
8172;DHT22;4127;47.908;10.850;2023-06-26T05:03:17;19.10;99.90
8172;DHT22;4127;47.908;10.850;2023-06-26T05:05:45;19.30;99.90
8172;DHT22;4127;47.908;10.850;2023-06-26T05:08:16;19.40;99.90
8172;DHT22;4127;47.908;10.850;2023-06-26T05:10:43;19.50;99.70
8172;DHT22;4127;47.908;10.850;2023-06-26T05:13:10;19.70;99.10
8172;DHT22;4127;47.908;10.850;2023-06-26T05:15:37;19.90;98.40
8172;DHT22;4127;47.908;10.850;2023-06-26T05:18:04;20.10;97.90
8172;DHT22;4127;47.908;10.850;2023-06-26T05:20:32;20.30;97.40
8172;DHT22;4127;47.908;10.850;2023-06-26T05:22:59;20.40;97.30
8172;DHT22;4127;47.908;10.850;2023-06-26T05:25:26;20.50;97.00
8172;DHT22;4127;47.908;10.850;2023-06-26T05:27:56;20.40;96.60
8172;DHT22;4127;47.908;10.850;2023-06-26T05:30:24;20.40;97.10
8172;DHT22;4127;47.908;10.850;2023-06-26T05:32:54;20.30;97.00
8172;DHT22;4127;47.908;10.850;2023-06-26T05:35:22;20.20;97.20
8172;DHT22;4127;47.908;10.850;2023-06-26T05:37:50;20.20;96.80
8172;DHT22;4127;47.908;10.850;2023-06-26T05:40:18;20.20;96.80
8172;DHT22;4127;47.908;10.850;2023-06-26T05:42:45;20.30;96.70
8172;DHT22;4127;47.908;10.850;2023-06-26T05:45:12;20.40;96.60
8172;DHT22;4127;47.908;10.850;2023-06-26T05:47:39;20.50;96.80
8172;DHT22;4127;47.908;10.850;2023-06-26T05:50:08;20.60;96.60
8172;DHT22;4127;47.908;10.850;2023-06-26T05:52:35;20.60;96.40
8172;DHT22;4127;47.908;10.850;2023-06-26T05:55:06;20.60;96.40
8172;DHT22;4127;47.908;10.850;2023-06-26T05:57:34;20.60;96.90
8172;DHT22;4127;47.908;10.850;2023-06-26T06:00:01;20.60;96.50
8172;DHT22;4127;47.908;10.850;2023-06-26T06:02:29;20.70;96.90
8172;DHT22;4127;47.908;10.850;2023-06-26T06:04:57;20.80;96.90
8172;DHT22;4127;47.908;10.850;2023-06-26T06:07:24;20.90;96.80
8172;DHT22;4127;47.908;10.850;2023-06-26T06:09:51;21.00;96.60
8172;DHT22;4127;47.908;10.850;2023-06-26T06:12:18;21.10;96.80
8172;DHT22;4127;47.908;10.850;2023-06-26T06:14:44;21.20;96.70
8172;DHT22;4127;47.908;10.850;2023-06-26T06:17:11;21.30;96.40
8172;DHT22;4127;47.908;10.850;2023-06-26T06:19:38;21.40;96.40
8172;DHT22;4127;47.908;10.850;2023-06-26T06:22:05;21.60;96.00
8172;DHT22;4127;47.908;10.850;2023-06-26T06:24:31;21.70;96.10
8172;DHT22;4127;47.908;10.850;2023-06-26T06:26:58;21.80;96.10
8172;DHT22;4127;47.908;10.850;2023-06-26T06:29:25;22.00;96.10
8172;DHT22;4127;47.908;10.850;2023-06-26T06:31:52;22.10;95.40
8172;DHT22;4127;47.908;10.850;2023-06-26T06:34:19;22.20;95.60
8172;DHT22;4127;47.908;10.850;2023-06-26T06:36:46;22.30;95.70
8172;DHT22;4127;47.908;10.850;2023-06-26T06:39:13;22.40;95.30
8172;DHT22;4127;47.908;10.850;2023-06-26T06:41:40;22.50;95.10
8172;DHT22;4127;47.908;10.850;2023-06-26T06:44:07;22.60;95.00
8172;DHT22;4127;47.908;10.850;2023-06-26T06:46:34;22.70;94.60
8172;DHT22;4127;47.908;10.850;2023-06-26T06:49:01;22.80;94.20
8172;DHT22;4127;47.908;10.850;2023-06-26T06:51:28;22.90;93.90
8172;DHT22;4127;47.908;10.850;2023-06-26T06:53:55;23.10;93.90
8172;DHT22;4127;47.908;10.850;2023-06-26T06:56:21;23.10;93.10
8172;DHT22;4127;47.908;10.850;2023-06-26T06:58:48;23.10;93.00
8172;DHT22;4127;47.908;10.850;2023-06-26T07:01:15;23.20;92.90
8172;DHT22;4127;47.908;10.850;2023-06-26T07:03:42;23.20;92.90
8172;DHT22;4127;47.908;10.850;2023-06-26T07:06:09;23.40;93.00
8172;DHT22;4127;47.908;10.850;2023-06-26T07:08:36;23.60;92.80
8172;DHT22;4127;47.908;10.850;2023-06-26T07:11:03;23.70;92.70
8172;DHT22;4127;47.908;10.850;2023-06-26T07:13:29;23.80;92.20
8172;DHT22;4127;47.908;10.850;2023-06-26T07:15:56;23.80;91.60
8172;DHT22;4127;47.908;10.850;2023-06-26T07:18:23;23.90;91.90
8172;DHT22;4127;47.908;10.850;2023-06-26T07:20:50;24.00;92.00
8172;DHT22;4127;47.908;10.850;2023-06-26T07:23:17;24.10;91.50
8172;DHT22;4127;47.908;10.850;2023-06-26T07:25:44;24.20;91.30
8172;DHT22;4127;47.908;10.850;2023-06-26T07:28:12;24.30;91.20
8172;DHT22;4127;47.908;10.850;2023-06-26T07:30:38;24.40;90.70
8172;DHT22;4127;47.908;10.850;2023-06-26T07:33:06;24.50;90.30
8172;DHT22;4127;47.908;10.850;2023-06-26T07:35:33;24.50;90.10
8172;DHT22;4127;47.908;10.850;2023-06-26T07:38:00;24.60;90.30
8172;DHT22;4127;47.908;10.850;2023-06-26T07:40:27;24.60;89.80
8172;DHT22;4127;47.908;10.850;2023-06-26T07:42:54;24.70;89.20
8172;DHT22;4127;47.908;10.850;2023-06-26T07:45:21;25.00;89.70
8172;DHT22;4127;47.908;10.850;2023-06-26T07:47:50;25.10;88.30
8172;DHT22;4127;47.908;10.850;2023-06-26T07:50:17;25.10;86.90
8172;DHT22;4127;47.908;10.850;2023-06-26T07:52:49;25.20;86.00
8172;DHT22;4127;47.908;10.850;2023-06-26T07:55:16;25.10;85.50
8172;DHT22;4127;47.908;10.850;2023-06-26T07:57:43;25.30;85.20
8172;DHT22;4127;47.908;10.850;2023-06-26T08:00:12;25.30;85.20
8172;DHT22;4127;47.908;10.850;2023-06-26T08:02:39;25.40;85.10
8172;DHT22;4127;47.908;10.850;2023-06-26T08:05:06;25.50;84.50
8172;DHT22;4127;47.908;10.850;2023-06-26T08:07:33;25.60;84.40
8172;DHT22;4127;47.908;10.850;2023-06-26T08:10:00;25.70;83.80
8172;DHT22;4127;47.908;10.850;2023-06-26T08:12:27;25.70;83.60
8172;DHT22;4127;47.908;10.850;2023-06-26T08:14:53;26.00;84.00
8172;DHT22;4127;47.908;10.850;2023-06-26T08:17:20;26.20;81.50
8172;DHT22;4127;47.908;10.850;2023-06-26T08:19:47;26.30;79.40
8172;DHT22;4127;47.908;10.850;2023-06-26T08:22:14;26.10;80.10
8172;DHT22;4127;47.908;10.850;2023-06-26T08:24:41;26.20;79.30
8172;DHT22;4127;47.908;10.850;2023-06-26T08:27:07;26.30;78.30
8172;DHT22;4127;47.908;10.850;2023-06-26T08:29:34;26.70;78.50
8172;DHT22;4127;47.908;10.850;2023-06-26T08:32:01;26.80;76.30
8172;DHT22;4127;47.908;10.850;2023-06-26T08:34:28;26.80;76.50
8172;DHT22;4127;47.908;10.850;2023-06-26T08:36:55;26.80;76.20
8172;DHT22;4127;47.908;10.850;2023-06-26T08:39:22;27.20;76.30
8172;DHT22;4127;47.908;10.850;2023-06-26T08:41:49;27.30;75.10
8172;DHT22;4127;47.908;10.850;2023-06-26T08:44:16;27.20;73.50
8172;DHT22;4127;47.908;10.850;2023-06-26T08:46:43;27.30;71.50
8172;DHT22;4127;47.908;10.850;2023-06-26T08:49:20;27.40;72.30
8172;DHT22;4127;47.908;10.850;2023-06-26T08:51:52;27.60;70.70
8172;DHT22;4127;47.908;10.850;2023-06-26T08:54:27;27.80;70.10
8172;DHT22;4127;47.908;10.850;2023-06-26T08:56:56;27.70;68.40
8172;DHT22;4127;47.908;10.850;2023-06-26T08:59:24;27.60;68.70
8172;DHT22;4127;47.908;10.850;2023-06-26T09:01:51;27.90;68.90
8172;DHT22;4127;47.908;10.850;2023-06-26T09:04:18;28.00;67.30
8172;DHT22;4127;47.908;10.850;2023-06-26T09:06:45;28.30;66.40
8172;DHT22;4127;47.908;10.850;2023-06-26T09:09:12;28.50;66.50
8172;DHT22;4127;47.908;10.850;2023-06-26T09:11:39;28.40;63.80
8172;DHT22;4127;47.908;10.850;2023-06-26T09:14:06;28.40;64.40
8172;DHT22;4127;47.908;10.850;2023-06-26T09:16:42;28.60;63.50
8172;DHT22;4127;47.908;10.850;2023-06-26T09:19:10;28.80;63.30
8172;DHT22;4127;47.908;10.850;2023-06-26T09:21:42;28.70;63.10
8172;DHT22;4127;47.908;10.850;2023-06-26T09:24:09;28.70;60.90
8172;DHT22;4127;47.908;10.850;2023-06-26T09:26:38;28.60;62.60
8172;DHT22;4127;47.908;10.850;2023-06-26T09:29:05;29.00;61.20
8172;DHT22;4127;47.908;10.850;2023-06-26T09:31:33;29.00;60.40
8172;DHT22;4127;47.908;10.850;2023-06-26T09:34:08;28.50;61.20
8172;DHT22;4127;47.908;10.850;2023-06-26T09:36:35;28.60;61.50
8172;DHT22;4127;47.908;10.850;2023-06-26T09:39:07;29.00;60.00
8172;DHT22;4127;47.908;10.850;2023-06-26T09:41:38;29.10;60.00
8172;DHT22;4127;47.908;10.850;2023-06-26T09:44:07;28.80;59.90
8172;DHT22;4127;47.908;10.850;2023-06-26T09:46:37;28.90;60.30
8172;DHT22;4127;47.908;10.850;2023-06-26T09:49:10;28.80;60.00
8172;DHT22;4127;47.908;10.850;2023-06-26T09:51:39;29.20;59.30
8172;DHT22;4127;47.908;10.850;2023-06-26T09:54:07;29.30;59.30
8172;DHT22;4127;47.908;10.850;2023-06-26T09:56:34;29.40;59.70
8172;DHT22;4127;47.908;10.850;2023-06-26T09:59:03;28.80;60.00
8172;DHT22;4127;47.908;10.850;2023-06-26T10:01:31;29.10;60.90
8172;DHT22;4127;47.908;10.850;2023-06-26T10:03:59;29.20;59.10
8172;DHT22;4127;47.908;10.850;2023-06-26T10:06:37;28.50;59.30
8172;DHT22;4127;47.908;10.850;2023-06-26T10:09:05;28.80;59.90
8172;DHT22;4127;47.908;10.850;2023-06-26T10:14:16;28.60;60.10
8172;DHT22;4127;47.908;10.850;2023-06-26T10:16:45;28.40;60.60
8172;DHT22;4127;47.908;10.850;2023-06-26T10:19:14;28.30;60.30
8172;DHT22;4127;47.908;10.850;2023-06-26T10:21:43;28.60;59.80
8172;DHT22;4127;47.908;10.850;2023-06-26T10:24:12;28.30;58.70
8172;DHT22;4127;47.908;10.850;2023-06-26T10:26:44;27.90;59.50
8172;DHT22;4127;47.908;10.850;2023-06-26T10:29:14;27.80;60.50
8172;DHT22;4127;47.908;10.850;2023-06-26T10:31:44;27.80;60.70
8172;DHT22;4127;47.908;10.850;2023-06-26T10:34:12;28.30;61.60
8172;DHT22;4127;47.908;10.850;2023-06-26T10:36:41;29.00;60.20
8172;DHT22;4127;47.908;10.850;2023-06-26T10:39:07;29.10;59.20
8172;DHT22;4127;47.908;10.850;2023-06-26T10:41:38;28.60;59.20
8172;DHT22;4127;47.908;10.850;2023-06-26T10:44:22;28.70;59.90
8172;DHT22;4127;47.908;10.850;2023-06-26T10:46:53;29.10;60.10
8172;DHT22;4127;47.908;10.850;2023-06-26T10:49:29;28.70;59.10
8172;DHT22;4127;47.908;10.850;2023-06-26T10:52:00;28.80;60.40
8172;DHT22;4127;47.908;10.850;2023-06-26T10:54:32;29.10;61.60
8172;DHT22;4127;47.908;10.850;2023-06-26T10:56:59;29.20;59.20
8172;DHT22;4127;47.908;10.850;2023-06-26T10:59:29;29.70;58.20
8172;DHT22;4127;47.908;10.850;2023-06-26T11:01:58;29.30;58.50
8172;DHT22;4127;47.908;10.850;2023-06-26T11:04:45;29.00;59.60
8172;DHT22;4127;47.908;10.850;2023-06-26T11:07:21;28.60;60.10
8172;DHT22;4127;47.908;10.850;2023-06-26T11:12:44;28.40;59.00
8172;DHT22;4127;47.908;10.850;2023-06-26T11:15:15;28.80;59.20
8172;DHT22;4127;47.908;10.850;2023-06-26T11:17:43;29.30;58.70
8172;DHT22;4127;47.908;10.850;2023-06-26T11:20:15;29.60;58.80
8172;DHT22;4127;47.908;10.850;2023-06-26T11:22:45;29.80;57.80
8172;DHT22;4127;47.908;10.850;2023-06-26T11:25:11;30.20;57.70
8172;DHT22;4127;47.908;10.850;2023-06-26T11:27:39;30.50;56.60
8172;DHT22;4127;47.908;10.850;2023-06-26T11:30:10;30.50;57.70
8172;DHT22;4127;47.908;10.850;2023-06-26T11:32:38;30.00;56.90
8172;DHT22;4127;47.908;10.850;2023-06-26T11:35:05;29.80;56.60
8172;DHT22;4127;47.908;10.850;2023-06-26T11:37:33;29.90;57.30
8172;DHT22;4127;47.908;10.850;2023-06-26T11:40:18;29.80;58.00
8172;DHT22;4127;47.908;10.850;2023-06-26T11:42:45;29.00;59.00
8172;DHT22;4127;47.908;10.850;2023-06-26T11:45:12;29.00;60.00
8172;DHT22;4127;47.908;10.850;2023-06-26T11:47:39;29.50;58.90
8172;DHT22;4127;47.908;10.850;2023-06-26T11:50:06;28.80;58.00
8172;DHT22;4127;47.908;10.850;2023-06-26T11:52:33;28.80;59.00
8172;DHT22;4127;47.908;10.850;2023-06-26T11:55:00;29.10;60.80
8172;DHT22;4127;47.908;10.850;2023-06-26T11:57:27;29.30;58.60
8172;DHT22;4127;47.908;10.850;2023-06-26T11:59:56;29.40;57.30
8172;DHT22;4127;47.908;10.850;2023-06-26T12:02:23;29.50;58.00
8172;DHT22;4127;47.908;10.850;2023-06-26T12:04:50;30.00;58.00
8172;DHT22;4127;47.908;10.850;2023-06-26T12:07:18;30.10;56.50
8172;DHT22;4127;47.908;10.850;2023-06-26T12:09:46;30.10;54.60
8172;DHT22;4127;47.908;10.850;2023-06-26T12:12:16;30.20;54.30
8172;DHT22;4127;47.908;10.850;2023-06-26T12:14:43;30.00;55.90
8172;DHT22;4127;47.908;10.850;2023-06-26T12:17:12;30.10;55.60
8172;DHT22;4127;47.908;10.850;2023-06-26T12:19:48;30.10;54.10
8172;DHT22;4127;47.908;10.850;2023-06-26T12:22:16;30.30;55.30
8172;DHT22;4127;47.908;10.850;2023-06-26T12:24:43;30.10;54.50
8172;DHT22;4127;47.908;10.850;2023-06-26T12:27:14;29.90;53.20
8172;DHT22;4127;47.908;10.850;2023-06-26T12:29:49;30.10;53.90
8172;DHT22;4127;47.908;10.850;2023-06-26T12:32:16;30.10;54.50
8172;DHT22;4127;47.908;10.850;2023-06-26T12:34:48;30.10;54.20
8172;DHT22;4127;47.908;10.850;2023-06-26T12:37:15;29.90;54.60
8172;DHT22;4127;47.908;10.850;2023-06-26T12:39:53;30.30;54.50
8172;DHT22;4127;47.908;10.850;2023-06-26T12:42:27;30.20;53.30
8172;DHT22;4127;47.908;10.850;2023-06-26T12:44:55;30.40;54.60
8172;DHT22;4127;47.908;10.850;2023-06-26T12:47:26;30.50;54.50
8172;DHT22;4127;47.908;10.850;2023-06-26T12:49:54;30.10;54.50
8172;DHT22;4127;47.908;10.850;2023-06-26T12:52:21;29.90;54.70
8172;DHT22;4127;47.908;10.850;2023-06-26T12:54:52;29.90;53.80
8172;DHT22;4127;47.908;10.850;2023-06-26T12:57:19;30.00;53.30
8172;DHT22;4127;47.908;10.850;2023-06-26T12:59:46;30.30;54.10
8172;DHT22;4127;47.908;10.850;2023-06-26T13:02:13;30.50;53.90
8172;DHT22;4127;47.908;10.850;2023-06-26T13:04:41;30.30;54.00
8172;DHT22;4127;47.908;10.850;2023-06-26T13:07:08;30.40;53.50
8172;DHT22;4127;47.908;10.850;2023-06-26T13:09:35;30.50;53.00
8172;DHT22;4127;47.908;10.850;2023-06-26T13:12:04;30.30;53.20
8172;DHT22;4127;47.908;10.850;2023-06-26T13:14:32;30.40;53.10
8172;DHT22;4127;47.908;10.850;2023-06-26T13:17:00;30.40;52.50
8172;DHT22;4127;47.908;10.850;2023-06-26T13:19:28;29.90;52.50
8172;DHT22;4127;47.908;10.850;2023-06-26T13:21:55;30.20;52.40
8172;DHT22;4127;47.908;10.850;2023-06-26T13:24:22;30.10;53.50
8172;DHT22;4127;47.908;10.850;2023-06-26T13:26:49;30.30;54.00
8172;DHT22;4127;47.908;10.850;2023-06-26T13:29:15;30.10;53.10
8172;DHT22;4127;47.908;10.850;2023-06-26T13:31:42;30.00;53.10
8172;DHT22;4127;47.908;10.850;2023-06-26T13:34:22;30.40;53.30
8172;DHT22;4127;47.908;10.850;2023-06-26T13:36:50;30.70;52.40
8172;DHT22;4127;47.908;10.850;2023-06-26T13:39:16;30.80;51.70
8172;DHT22;4127;47.908;10.850;2023-06-26T13:41:43;30.70;52.20
8172;DHT22;4127;47.908;10.850;2023-06-26T13:44:10;30.90;52.30
8172;DHT22;4127;47.908;10.850;2023-06-26T13:46:54;31.20;52.60
8172;DHT22;4127;47.908;10.850;2023-06-26T13:49:21;30.10;52.30
8172;DHT22;4127;47.908;10.850;2023-06-26T13:51:47;29.70;53.20
8172;DHT22;4127;47.908;10.850;2023-06-26T13:54:14;29.70;53.80
8172;DHT22;4127;47.908;10.850;2023-06-26T13:56:41;29.80;53.70
8172;DHT22;4127;47.908;10.850;2023-06-26T13:59:08;29.40;54.10
8172;DHT22;4127;47.908;10.850;2023-06-26T14:01:35;29.00;54.50
8172;DHT22;4127;47.908;10.850;2023-06-26T14:04:02;28.80;54.60
8172;DHT22;4127;47.908;10.850;2023-06-26T14:06:28;28.70;55.00
8172;DHT22;4127;47.908;10.850;2023-06-26T14:08:56;28.70;54.90
8172;DHT22;4127;47.908;10.850;2023-06-26T14:11:23;28.70;54.80
8172;DHT22;4127;47.908;10.850;2023-06-26T14:13:51;28.80;55.30
8172;DHT22;4127;47.908;10.850;2023-06-26T14:16:18;28.70;55.50
8172;DHT22;4127;47.908;10.850;2023-06-26T14:18:46;28.80;55.70
8172;DHT22;4127;47.908;10.850;2023-06-26T14:21:13;28.70;55.70
8172;DHT22;4127;47.908;10.850;2023-06-26T14:23:41;28.60;55.80
8172;DHT22;4127;47.908;10.850;2023-06-26T14:26:07;28.60;56.40
8172;DHT22;4127;47.908;10.850;2023-06-26T14:28:34;28.70;56.20
8172;DHT22;4127;47.908;10.850;2023-06-26T14:31:01;28.70;57.00
8172;DHT22;4127;47.908;10.850;2023-06-26T14:33:28;28.70;57.20
8172;DHT22;4127;47.908;10.850;2023-06-26T14:35:55;28.50;57.50
8172;DHT22;4127;47.908;10.850;2023-06-26T14:38:22;28.40;58.30
8172;DHT22;4127;47.908;10.850;2023-06-26T14:40:49;28.30;58.50
8172;DHT22;4127;47.908;10.850;2023-06-26T14:43:16;28.20;58.90
8172;DHT22;4127;47.908;10.850;2023-06-26T14:45:43;28.20;59.30
8172;DHT22;4127;47.908;10.850;2023-06-26T14:48:11;28.20;58.80
8172;DHT22;4127;47.908;10.850;2023-06-26T14:50:37;28.10;59.00
8172;DHT22;4127;47.908;10.850;2023-06-26T14:53:04;27.90;59.30
8172;DHT22;4127;47.908;10.850;2023-06-26T14:55:31;27.90;59.50
8172;DHT22;4127;47.908;10.850;2023-06-26T14:57:58;27.90;59.60
8172;DHT22;4127;47.908;10.850;2023-06-26T15:00:25;27.50;61.50
8172;DHT22;4127;47.908;10.850;2023-06-26T15:02:53;27.00;64.10
8172;DHT22;4127;47.908;10.850;2023-06-26T15:05:24;26.60;65.70
8172;DHT22;4127;47.908;10.850;2023-06-26T15:07:51;26.30;67.90
8172;DHT22;4127;47.908;10.850;2023-06-26T15:10:18;25.90;71.10
8172;DHT22;4127;47.908;10.850;2023-06-26T15:12:45;25.50;74.50
8172;DHT22;4127;47.908;10.850;2023-06-26T15:15:12;25.20;75.50
8172;DHT22;4127;47.908;10.850;2023-06-26T15:17:39;25.10;78.20
8172;DHT22;4127;47.908;10.850;2023-06-26T15:20:06;25.10;78.20
8172;DHT22;4127;47.908;10.850;2023-06-26T15:22:33;25.20;77.90
8172;DHT22;4127;47.908;10.850;2023-06-26T15:25:00;25.60;77.80
8172;DHT22;4127;47.908;10.850;2023-06-26T15:27:27;26.00;77.50
8172;DHT22;4127;47.908;10.850;2023-06-26T15:29:53;26.40;76.30
8172;DHT22;4127;47.908;10.850;2023-06-26T15:32:20;26.60;76.00
8172;DHT22;4127;47.908;10.850;2023-06-26T15:34:47;26.50;76.00
8172;DHT22;4127;47.908;10.850;2023-06-26T15:37:14;26.40;77.30
8172;DHT22;4127;47.908;10.850;2023-06-26T15:39:42;26.60;77.60
8172;DHT22;4127;47.908;10.850;2023-06-26T15:42:09;26.70;77.00
8172;DHT22;4127;47.908;10.850;2023-06-26T15:44:35;27.10;76.80
8172;DHT22;4127;47.908;10.850;2023-06-26T15:47:02;27.30;75.00
8172;DHT22;4127;47.908;10.850;2023-06-26T15:49:29;27.60;73.80
8172;DHT22;4127;47.908;10.850;2023-06-26T15:51:56;27.80;73.00
8172;DHT22;4127;47.908;10.850;2023-06-26T15:54:25;28.00;68.70
8172;DHT22;4127;47.908;10.850;2023-06-26T15:56:52;27.90;67.00
8172;DHT22;4127;47.908;10.850;2023-06-26T15:59:18;27.70;66.80
8172;DHT22;4127;47.908;10.850;2023-06-26T16:01:45;27.60;68.40
8172;DHT22;4127;47.908;10.850;2023-06-26T16:04:12;27.30;68.10